sensor_id;sensor_type;location;lat;lon;timestamp;pressure;altitude;pressure_sealevel;temperature
22269;BMP280;11303;50.772;19.670;2023-09-18T00:00:09;99127.56;;;13.73
22269;BMP280;11303;50.772;19.670;2023-09-18T00:02:13;99126.47;;;13.74
22269;BMP280;11303;50.772;19.670;2023-09-18T00:04:15;99121.28;;;13.77
22269;BMP280;11303;50.772;19.670;2023-09-18T00:06:17;99125.75;;;13.77
22269;BMP280;11303;50.772;19.670;2023-09-18T00:08:19;99125.00;;;13.76
22269;BMP280;11303;50.772;19.670;2023-09-18T00:10:21;99118.97;;;13.72
22269;BMP280;11303;50.772;19.670;2023-09-18T00:12:22;99113.31;;;13.70
22269;BMP280;11303;50.772;19.670;2023-09-18T00:14:24;99109.59;;;13.68
22269;BMP280;11303;50.772;19.670;2023-09-18T00:16:27;99105.47;;;13.66
22269;BMP280;11303;50.772;19.670;2023-09-18T00:18:29;99112.56;;;13.66
22269;BMP280;11303;50.772;19.670;2023-09-18T00:20:30;99114.38;;;13.65
22269;BMP280;11303;50.772;19.670;2023-09-18T00:22:33;99108.38;;;13.61
22269;BMP280;11303;50.772;19.670;2023-09-18T00:24:35;99102.72;;;13.59
22269;BMP280;11303;50.772;19.670;2023-09-18T00:26:36;99104.94;;;13.57
22269;BMP280;11303;50.772;19.670;2023-09-18T00:28:38;99110.91;;;13.58
22269;BMP280;11303;50.772;19.670;2023-09-18T00:30:47;99106.06;;;13.56
22269;BMP280;11303;50.772;19.670;2023-09-18T00:32:49;99102.63;;;13.52
22269;BMP280;11303;50.772;19.670;2023-09-18T00:34:51;99109.31;;;13.50
22269;BMP280;11303;50.772;19.670;2023-09-18T00:36:53;99106.72;;;13.50
22269;BMP280;11303;50.772;19.670;2023-09-18T00:38:54;99102.56;;;13.49
22269;BMP280;11303;50.772;19.670;2023-09-18T00:40:56;99110.00;;;13.46
22269;BMP280;11303;50.772;19.670;2023-09-18T00:42:58;99106.59;;;13.42
22269;BMP280;11303;50.772;19.670;2023-09-18T00:44:59;99103.22;;;13.42
22269;BMP280;11303;50.772;19.670;2023-09-18T00:47:01;99105.78;;;13.38
22269;BMP280;11303;50.772;19.670;2023-09-18T00:49:03;99100.91;;;13.37
22269;BMP280;11303;50.772;19.670;2023-09-18T00:51:05;99105.38;;;13.36
22269;BMP280;11303;50.772;19.670;2023-09-18T00:53:08;99103.53;;;13.37
22269;BMP280;11303;50.772;19.670;2023-09-18T00:55:10;99101.59;;;13.34
22269;BMP280;11303;50.772;19.670;2023-09-18T00:57:13;99104.91;;;13.31
22269;BMP280;11303;50.772;19.670;2023-09-18T00:59:15;99107.78;;;13.25
22269;BMP280;11303;50.772;19.670;2023-09-18T01:01:18;99098.38;;;13.21
22269;BMP280;11303;50.772;19.670;2023-09-18T01:03:24;99097.97;;;13.19
22269;BMP280;11303;50.772;19.670;2023-09-18T01:05:27;99099.44;;;13.16
22269;BMP280;11303;50.772;19.670;2023-09-18T01:07:29;99093.06;;;13.14
22269;BMP280;11303;50.772;19.670;2023-09-18T01:09:31;99104.25;;;13.14
22269;BMP280;11303;50.772;19.670;2023-09-18T01:16:25;99101.34;;;13.19
22269;BMP280;11303;50.772;19.670;2023-09-18T01:18:28;99106.28;;;13.24
22269;BMP280;11303;50.772;19.670;2023-09-18T01:20:30;99099.28;;;13.29
22269;BMP280;11303;50.772;19.670;2023-09-18T01:22:32;99097.81;;;13.31
22269;BMP280;11303;50.772;19.670;2023-09-18T01:24:34;99102.00;;;13.36
22269;BMP280;11303;50.772;19.670;2023-09-18T01:26:36;99105.09;;;13.41
22269;BMP280;11303;50.772;19.670;2023-09-18T01:28:38;99097.66;;;13.43
22269;BMP280;11303;50.772;19.670;2023-09-18T01:30:39;99102.91;;;13.47
22269;BMP280;11303;50.772;19.670;2023-09-18T01:32:42;99105.19;;;13.49
22269;BMP280;11303;50.772;19.670;2023-09-18T01:34:49;99102.91;;;13.47
22269;BMP280;11303;50.772;19.670;2023-09-18T01:36:52;99100.31;;;13.47
22269;BMP280;11303;50.772;19.670;2023-09-18T01:38:55;99108.13;;;13.47
22269;BMP280;11303;50.772;19.670;2023-09-18T01:40:56;99105.13;;;13.45
22269;BMP280;11303;50.772;19.670;2023-09-18T01:42:58;99101.69;;;13.41
22269;BMP280;11303;50.772;19.670;2023-09-18T01:45:00;99101.28;;;13.39
22269;BMP280;11303;50.772;19.670;2023-09-18T01:47:03;99102.75;;;13.36
22269;BMP280;11303;50.772;19.670;2023-09-18T01:49:05;99100.47;;;13.35
22269;BMP280;11303;50.772;19.670;2023-09-18T01:51:06;99102.31;;;13.31
22269;BMP280;11303;50.772;19.670;2023-09-18T01:53:08;99106.75;;;13.30
22269;BMP280;11303;50.772;19.670;2023-09-18T01:55:10;99105.63;;;13.31
22269;BMP280;11303;50.772;19.670;2023-09-18T01:57:12;99107.09;;;13.29
22269;BMP280;11303;50.772;19.670;2023-09-18T01:59:13;99104.41;;;13.25
22269;BMP280;11303;50.772;19.670;2023-09-18T02:01:16;99101.78;;;13.21
22269;BMP280;11303;50.772;19.670;2023-09-18T02:03:18;99115.50;;;13.18
22269;BMP280;11303;50.772;19.670;2023-09-18T02:05:41;99110.25;;;13.15
22269;BMP280;11303;50.772;19.670;2023-09-18T02:07:44;99102.31;;;13.11
22269;BMP280;11303;50.772;19.670;2023-09-18T02:09:45;99106.75;;;13.07
22269;BMP280;11303;50.772;19.670;2023-09-18T02:11:47;99104.47;;;13.05
22269;BMP280;11303;50.772;19.670;2023-09-18T02:13:51;99108.94;;;13.05
22269;BMP280;11303;50.772;19.670;2023-09-18T02:15:53;99114.50;;;13.03
22269;BMP280;11303;50.772;19.670;2023-09-18T02:17:55;99105.94;;;13.03
22269;BMP280;11303;50.772;19.670;2023-09-18T02:19:56;99106.69;;;13.03
22269;BMP280;11303;50.772;19.670;2023-09-18T02:21:58;99102.59;;;13.02
22269;BMP280;11303;50.772;19.670;2023-09-18T02:24:00;99105.53;;;13.01
22269;BMP280;11303;50.772;19.670;2023-09-18T02:26:01;99113.38;;;13.01
22269;BMP280;11303;50.772;19.670;2023-09-18T02:28:03;99108.47;;;12.99
22269;BMP280;11303;50.772;19.670;2023-09-18T02:30:06;99118.16;;;12.99
22269;BMP280;11303;50.772;19.670;2023-09-18T02:32:08;99111.09;;;12.99
22269;BMP280;11303;50.772;19.670;2023-09-18T02:34:11;99116.31;;;12.99
22269;BMP280;11303;50.772;19.670;2023-09-18T02:36:13;99114.44;;;13.00
22269;BMP280;11303;50.772;19.670;2023-09-18T02:38:15;99112.59;;;13.00
22269;BMP280;11303;50.772;19.670;2023-09-18T02:40:17;99111.84;;;13.00
22269;BMP280;11303;50.772;19.670;2023-09-18T02:42:18;99106.63;;;13.00
22269;BMP280;11303;50.772;19.670;2023-09-18T02:44:20;99120.75;;;12.99
22269;BMP280;11303;50.772;19.670;2023-09-18T02:46:22;99115.88;;;12.97
22269;BMP280;11303;50.772;19.670;2023-09-18T02:48:24;99109.94;;;12.97
22269;BMP280;11303;50.772;19.670;2023-09-18T02:50:25;99108.81;;;12.98
22269;BMP280;11303;50.772;19.670;2023-09-18T02:52:27;99106.22;;;12.98
22269;BMP280;11303;50.772;19.670;2023-09-18T02:54:29;99114.03;;;12.98
22269;BMP280;11303;50.772;19.670;2023-09-18T02:56:30;99108.81;;;12.98
22269;BMP280;11303;50.772;19.670;2023-09-18T02:58:32;99099.50;;;12.97
22269;BMP280;11303;50.772;19.670;2023-09-18T03:00:34;99104.34;;;12.98
22269;BMP280;11303;50.772;19.670;2023-09-18T03:02:44;99100.59;;;12.96
22269;BMP280;11303;50.772;19.670;2023-09-18T03:04:46;99099.09;;;12.95
22269;BMP280;11303;50.772;19.670;2023-09-18T03:06:47;99103.88;;;12.93
22269;BMP280;11303;50.772;19.670;2023-09-18T03:08:50;99099.34;;;12.90
22269;BMP280;11303;50.772;19.670;2023-09-18T03:10:52;99104.50;;;12.86
22269;BMP280;11303;50.772;19.670;2023-09-18T03:12:53;99098.53;;;12.85
22269;BMP280;11303;50.772;19.670;2023-09-18T03:14:55;99102.97;;;12.85
22269;BMP280;11303;50.772;19.670;2023-09-18T03:16:56;99094.03;;;12.82
22269;BMP280;11303;50.772;19.670;2023-09-18T03:18:58;99090.28;;;12.83
22269;BMP280;11303;50.772;19.670;2023-09-18T03:21:00;99087.28;;;12.81
22269;BMP280;11303;50.772;19.670;2023-09-18T03:23:02;99089.81;;;12.78
22269;BMP280;11303;50.772;19.670;2023-09-18T03:25:04;99092.78;;;12.76
22269;BMP280;11303;50.772;19.670;2023-09-18T03:27:06;99094.56;;;12.72
22269;BMP280;11303;50.772;19.670;2023-09-18T03:29:07;99098.59;;;12.70
22269;BMP280;11303;50.772;19.670;2023-09-18T03:31:09;99096.34;;;12.68
22269;BMP280;11303;50.772;19.670;2023-09-18T03:33:11;99101.63;;;12.72
22269;BMP280;11303;50.772;19.670;2023-09-18T03:35:12;99092.78;;;12.76
22269;BMP280;11303;50.772;19.670;2023-09-18T03:37:20;99086.44;;;12.77
22269;BMP280;11303;50.772;19.670;2023-09-18T03:39:22;99088.25;;;12.73
22269;BMP280;11303;50.772;19.670;2023-09-18T03:41:23;99096.75;;;12.70
22269;BMP280;11303;50.772;19.670;2023-09-18T03:43:25;99085.09;;;12.64
22269;BMP280;11303;50.772;19.670;2023-09-18T03:45:27;99089.16;;;12.61
22269;BMP280;11303;50.772;19.670;2023-09-18T03:47:28;99101.00;;;12.59
22269;BMP280;11303;50.772;19.670;2023-09-18T03:49:30;99090.16;;;12.57
22269;BMP280;11303;50.772;19.670;2023-09-18T03:51:32;99086.72;;;12.53
22269;BMP280;11303;50.772;19.670;2023-09-18T03:53:33;99089.25;;;12.49
22269;BMP280;11303;50.772;19.670;2023-09-18T03:55:35;99091.53;;;12.51
22269;BMP280;11303;50.772;19.670;2023-09-18T03:57:39;99087.41;;;12.50
22269;BMP280;11303;50.772;19.670;2023-09-18T03:59:40;99092.63;;;12.50
22269;BMP280;11303;50.772;19.670;2023-09-18T04:01:42;99093.66;;;12.45
22269;BMP280;11303;50.772;19.670;2023-09-18T04:03:43;99092.16;;;12.44
22269;BMP280;11303;50.772;19.670;2023-09-18T04:05:45;99090.59;;;12.39
22269;BMP280;11303;50.772;19.670;2023-09-18T04:07:47;99093.88;;;12.36
22269;BMP280;11303;50.772;19.670;2023-09-18T04:09:48;99090.84;;;12.34
22269;BMP280;11303;50.772;19.670;2023-09-18T04:11:50;99096.72;;;12.31
22269;BMP280;11303;50.772;19.670;2023-09-18T04:13:52;99086.28;;;12.31
22269;BMP280;11303;50.772;19.670;2023-09-18T04:15:53;99086.75;;;12.33
22269;BMP280;11303;50.772;19.670;2023-09-18T04:17:58;99085.56;;;12.31
22269;BMP280;11303;50.772;19.670;2023-09-18T04:20:00;99083.63;;;12.27
22269;BMP280;11303;50.772;19.670;2023-09-18T04:22:03;99082.03;;;12.23
22269;BMP280;11303;50.772;19.670;2023-09-18T04:24:04;99077.91;;;12.22
22269;BMP280;11303;50.772;19.670;2023-09-18T04:26:06;99079.78;;;12.21
22269;BMP280;11303;50.772;19.670;2023-09-18T04:28:08;99079.84;;;12.25
22269;BMP280;11303;50.772;19.670;2023-09-18T04:30:10;99077.66;;;12.27
22269;BMP280;11303;50.772;19.670;2023-09-18T04:32:11;99085.47;;;12.27
22269;BMP280;11303;50.772;19.670;2023-09-18T04:34:13;99085.88;;;12.29
22269;BMP280;11303;50.772;19.670;2023-09-18T04:36:15;99081.09;;;12.31
22269;BMP280;11303;50.772;19.670;2023-09-18T04:38:17;99081.84;;;12.32
22269;BMP280;11303;50.772;19.670;2023-09-18T04:40:21;99084.13;;;12.33
22269;BMP280;11303;50.772;19.670;2023-09-18T04:42:22;99090.84;;;12.34
22269;BMP280;11303;50.772;19.670;2023-09-18T04:44:24;99089.22;;;12.45
22269;BMP280;11303;50.772;19.670;2023-09-18T04:46:25;99086.47;;;12.58
22269;BMP280;11303;50.772;19.670;2023-09-18T04:48:27;99089.34;;;12.72
22269;BMP280;11303;50.772;19.670;2023-09-18T04:50:29;99091.94;;;12.92
22269;BMP280;11303;50.772;19.670;2023-09-18T04:52:31;99083.72;;;13.13
22269;BMP280;11303;50.772;19.670;2023-09-18T04:54:32;99086.22;;;13.29
22269;BMP280;11303;50.772;19.670;2023-09-18T04:56:34;99096.91;;;13.43
22269;BMP280;11303;50.772;19.670;2023-09-18T04:58:36;99090.84;;;13.62
22269;BMP280;11303;50.772;19.670;2023-09-18T05:00:38;99097.44;;;13.79
22269;BMP280;11303;50.772;19.670;2023-09-18T05:02:40;99098.06;;;13.99
22269;BMP280;11303;50.772;19.670;2023-09-18T05:04:42;99099.09;;;14.21
22269;BMP280;11303;50.772;19.670;2023-09-18T05:06:44;99100.94;;;14.51
22269;BMP280;11303;50.772;19.670;2023-09-18T05:08:45;99097.94;;;14.86
22269;BMP280;11303;50.772;19.670;2023-09-18T05:10:47;99093.31;;;15.17
22269;BMP280;11303;50.772;19.670;2023-09-18T05:12:49;99104.34;;;15.37
22269;BMP280;11303;50.772;19.670;2023-09-18T05:14:52;99106.00;;;15.56
22269;BMP280;11303;50.772;19.670;2023-09-18T05:16:54;99097.16;;;15.85
22269;BMP280;11303;50.772;19.670;2023-09-18T05:18:55;99098.81;;;16.15
22269;BMP280;11303;50.772;19.670;2023-09-18T05:20:57;99095.81;;;16.20
22269;BMP280;11303;50.772;19.670;2023-09-18T05:22:59;99091.69;;;16.16
22269;BMP280;11303;50.772;19.670;2023-09-18T05:25:01;99092.03;;;16.10
22269;BMP280;11303;50.772;19.670;2023-09-18T05:27:03;99089.06;;;16.12
22269;BMP280;11303;50.772;19.670;2023-09-18T05:29:07;99092.88;;;16.29
22269;BMP280;11303;50.772;19.670;2023-09-18T05:31:09;99083.53;;;16.49
22269;BMP280;11303;50.772;19.670;2023-09-18T05:33:10;99078.69;;;16.69
22269;BMP280;11303;50.772;19.670;2023-09-18T05:35:12;99085.09;;;16.90
22269;BMP280;11303;50.772;19.670;2023-09-18T05:37:15;99086.22;;;17.00
22269;BMP280;11303;50.772;19.670;2023-09-18T05:39:17;99089.97;;;17.13
22269;BMP280;11303;50.772;19.670;2023-09-18T05:41:18;99083.59;;;17.32
22269;BMP280;11303;50.772;19.670;2023-09-18T05:43:20;99074.19;;;17.49
22269;BMP280;11303;50.772;19.670;2023-09-18T05:45:22;99075.56;;;17.79
22269;BMP280;11303;50.772;19.670;2023-09-18T05:47:24;99078.84;;;18.08
22269;BMP280;11303;50.772;19.670;2023-09-18T05:49:26;99072.69;;;18.32
22269;BMP280;11303;50.772;19.670;2023-09-18T05:51:29;99069.41;;;18.70
22269;BMP280;11303;50.772;19.670;2023-09-18T05:53:31;99073.38;;;18.92
22269;BMP280;11303;50.772;19.670;2023-09-18T05:55:33;99068.59;;;19.21
22269;BMP280;11303;50.772;19.670;2023-09-18T05:57:36;99067.59;;;19.42
22269;BMP280;11303;50.772;19.670;2023-09-18T05:59:38;99071.41;;;19.69
22269;BMP280;11303;50.772;19.670;2023-09-18T06:01:41;99056.22;;;19.80
22269;BMP280;11303;50.772;19.670;2023-09-18T06:03:43;99056.88;;;19.87
22269;BMP280;11303;50.772;19.670;2023-09-18T06:05:45;99052.34;;;20.15
22269;BMP280;11303;50.772;19.670;2023-09-18T06:07:48;99056.19;;;20.38
22269;BMP280;11303;50.772;19.670;2023-09-18T06:09:52;99063.81;;;20.56
22269;BMP280;11303;50.772;19.670;2023-09-18T06:11:53;99060.22;;;20.66
22269;BMP280;11303;50.772;19.670;2023-09-18T06:13:55;99061.47;;;20.81
22269;BMP280;11303;50.772;19.670;2023-09-18T06:15:57;99054.44;;;20.94
22269;BMP280;11303;50.772;19.670;2023-09-18T06:17:58;99047.56;;;21.01
22269;BMP280;11303;50.772;19.670;2023-09-18T06:20:00;99050.81;;;21.08
22269;BMP280;11303;50.772;19.670;2023-09-18T06:22:02;99047.88;;;21.03
22269;BMP280;11303;50.772;19.670;2023-09-18T06:24:04;99041.94;;;20.99
22269;BMP280;11303;50.772;19.670;2023-09-18T06:26:05;99040.25;;;20.65
22269;BMP280;11303;50.772;19.670;2023-09-18T06:28:07;99049.28;;;20.17
22269;BMP280;11303;50.772;19.670;2023-09-18T06:30:09;99033.75;;;19.95
22269;BMP280;11303;50.772;19.670;2023-09-18T06:32:12;99031.81;;;19.76
22269;BMP280;11303;50.772;19.670;2023-09-18T06:34:13;99024.56;;;19.53
22269;BMP280;11303;50.772;19.670;2023-09-18T06:36:15;99032.84;;;19.51
22269;BMP280;11303;50.772;19.670;2023-09-18T06:38:16;99031.06;;;19.44
22269;BMP280;11303;50.772;19.670;2023-09-18T06:40:18;99028.38;;;19.48
22269;BMP280;11303;50.772;19.670;2023-09-18T06:42:20;99022.78;;;19.42
22269;BMP280;11303;50.772;19.670;2023-09-18T06:44:22;99027.69;;;19.40
22269;BMP280;11303;50.772;19.670;2023-09-18T06:46:25;99031.06;;;19.44
22269;BMP280;11303;50.772;19.670;2023-09-18T06:48:27;99025.72;;;19.48
22269;BMP280;11303;50.772;19.670;2023-09-18T06:50:33;99031.00;;;19.48
22269;BMP280;11303;50.772;19.670;2023-09-18T06:52:35;99024.59;;;19.45
22269;BMP280;11303;50.772;19.670;2023-09-18T06:54:36;99029.19;;;19.41
22269;BMP280;11303;50.772;19.670;2023-09-18T06:56:38;99032.91;;;19.48
22269;BMP280;11303;50.772;19.670;2023-09-18T06:58:40;99032.09;;;19.51
22269;BMP280;11303;50.772;19.670;2023-09-18T07:00:41;99034.13;;;19.70
22269;BMP280;11303;50.772;19.670;2023-09-18T07:02:46;99028.56;;;19.92
22269;BMP280;11303;50.772;19.670;2023-09-18T07:04:48;99031.75;;;20.06
22269;BMP280;11303;50.772;19.670;2023-09-18T07:06:50;99040.94;;;20.22
22269;BMP280;11303;50.772;19.670;2023-09-18T07:08:53;99036.19;;;20.37
22269;BMP280;11303;50.772;19.670;2023-09-18T07:10:55;99033.03;;;20.45
22269;BMP280;11303;50.772;19.670;2023-09-18T07:12:57;99040.44;;;20.54
22269;BMP280;11303;50.772;19.670;2023-09-18T07:15:01;99030.56;;;20.58
22269;BMP280;11303;50.772;19.670;2023-09-18T07:17:04;99032.16;;;20.76
22269;BMP280;11303;50.772;19.670;2023-09-18T07:19:06;99017.00;;;21.00
22269;BMP280;11303;50.772;19.670;2023-09-18T07:21:08;99018.75;;;21.26
22269;BMP280;11303;50.772;19.670;2023-09-18T07:23:10;99027.59;;;21.72
22269;BMP280;11303;50.772;19.670;2023-09-18T07:25:12;99036.13;;;22.29
22269;BMP280;11303;50.772;19.670;2023-09-18T07:27:14;99032.53;;;22.81
22269;BMP280;11303;50.772;19.670;2023-09-18T07:29:16;99030.69;;;23.59
22269;BMP280;11303;50.772;19.670;2023-09-18T07:31:18;99028.69;;;23.75
22269;BMP280;11303;50.772;19.670;2023-09-18T07:33:19;99032.63;;;23.71
22269;BMP280;11303;50.772;19.670;2023-09-18T07:35:22;99027.53;;;24.24
22269;BMP280;11303;50.772;19.670;2023-09-18T07:37:24;99030.97;;;25.00
22269;BMP280;11303;50.772;19.670;2023-09-18T07:39:25;99025.78;;;25.27
22269;BMP280;11303;50.772;19.670;2023-09-18T07:41:32;99016.94;;;25.49
22269;BMP280;11303;50.772;19.670;2023-09-18T07:43:33;99012.69;;;25.61
22269;BMP280;11303;50.772;19.670;2023-09-18T07:45:38;99012.25;;;25.71
22269;BMP280;11303;50.772;19.670;2023-09-18T07:47:40;99012.72;;;25.97
22269;BMP280;11303;50.772;19.670;2023-09-18T07:49:42;99026.72;;;26.44
22269;BMP280;11303;50.772;19.670;2023-09-18T07:51:44;99013.28;;;26.57
22269;BMP280;11303;50.772;19.670;2023-09-18T07:53:46;99012.88;;;26.82
22269;BMP280;11303;50.772;19.670;2023-09-18T07:55:55;99014.25;;;26.68
22269;BMP280;11303;50.772;19.670;2023-09-18T07:57:58;99006.97;;;26.78
22269;BMP280;11303;50.772;19.670;2023-09-18T08:00:01;98999.59;;;26.73
22269;BMP280;11303;50.772;19.670;2023-09-18T08:02:13;98997.03;;;26.79
22269;BMP280;11303;50.772;19.670;2023-09-18T08:04:15;98987.13;;;26.79
22269;BMP280;11303;50.772;19.670;2023-09-18T08:06:17;98996.09;;;26.91
22269;BMP280;11303;50.772;19.670;2023-09-18T08:08:21;98990.56;;;27.04
22269;BMP280;11303;50.772;19.670;2023-09-18T08:10:23;98973.00;;;27.21
22269;BMP280;11303;50.772;19.670;2023-09-18T08:12:25;98971.31;;;27.00
22269;BMP280;11303;50.772;19.670;2023-09-18T08:14:27;98971.97;;;26.85
22269;BMP280;11303;50.772;19.670;2023-09-18T08:16:28;98966.69;;;27.33
22269;BMP280;11303;50.772;19.670;2023-09-18T08:18:31;98971.50;;;27.98
22269;BMP280;11303;50.772;19.670;2023-09-18T08:20:33;98972.53;;;28.45
22269;BMP280;11303;50.772;19.670;2023-09-18T08:22:34;98968.34;;;28.94
22269;BMP280;11303;50.772;19.670;2023-09-18T08:24:36;98964.81;;;28.67
22269;BMP280;11303;50.772;19.670;2023-09-18T08:26:38;98959.22;;;28.86
22269;BMP280;11303;50.772;19.670;2023-09-18T08:28:40;98955.63;;;28.54
22269;BMP280;11303;50.772;19.670;2023-09-18T08:30:45;98950.41;;;28.30
22269;BMP280;11303;50.772;19.670;2023-09-18T08:32:48;98945.53;;;28.13
22269;BMP280;11303;50.772;19.670;2023-09-18T08:34:50;98944.59;;;27.87
22269;BMP280;11303;50.772;19.670;2023-09-18T08:36:52;98948.38;;;28.24
22269;BMP280;11303;50.772;19.670;2023-09-18T08:38:53;98947.50;;;28.63
22269;BMP280;11303;50.772;19.670;2023-09-18T08:40:57;98948.53;;;28.86
22269;BMP280;11303;50.772;19.670;2023-09-18T08:42:59;98953.63;;;29.25
22269;BMP280;11303;50.772;19.670;2023-09-18T08:45:09;98941.94;;;29.48
22269;BMP280;11303;50.772;19.670;2023-09-18T08:47:13;98933.75;;;29.11
22269;BMP280;11303;50.772;19.670;2023-09-18T08:49:16;98924.94;;;29.05
22269;BMP280;11303;50.772;19.670;2023-09-18T08:51:19;98926.91;;;29.56
22269;BMP280;11303;50.772;19.670;2023-09-18T08:53:21;98920.97;;;29.99
22269;BMP280;11303;50.772;19.670;2023-09-18T08:55:24;98902.63;;;29.60
22269;BMP280;11303;50.772;19.670;2023-09-18T08:57:27;98911.75;;;29.22
22269;BMP280;11303;50.772;19.670;2023-09-18T08:59:30;98891.59;;;28.65
22269;BMP280;11303;50.772;19.670;2023-09-18T09:01:32;98895.53;;;28.14
22269;BMP280;11303;50.772;19.670;2023-09-18T09:03:34;98896.84;;;28.39
22269;BMP280;11303;50.772;19.670;2023-09-18T09:05:36;98895.56;;;28.90
22269;BMP280;11303;50.772;19.670;2023-09-18T09:07:38;98894.44;;;29.43
22269;BMP280;11303;50.772;19.670;2023-09-18T09:09:40;98901.34;;;29.55
22269;BMP280;11303;50.772;19.670;2023-09-18T09:11:50;98889.13;;;29.49
22269;BMP280;11303;50.772;19.670;2023-09-18T09:14:11;98896.09;;;28.94
22269;BMP280;11303;50.772;19.670;2023-09-18T09:16:17;98882.69;;;28.53
22269;BMP280;11303;50.772;19.670;2023-09-18T09:18:20;98878.72;;;28.63
22269;BMP280;11303;50.772;19.670;2023-09-18T09:20:21;98876.53;;;28.47
22269;BMP280;11303;50.772;19.670;2023-09-18T09:22:23;98880.84;;;29.00
22269;BMP280;11303;50.772;19.670;2023-09-18T09:24:43;98878.81;;;28.95
22269;BMP280;11303;50.772;19.670;2023-09-18T09:26:57;98873.44;;;28.69
22269;BMP280;11303;50.772;19.670;2023-09-18T09:29:14;98864.59;;;28.42
22269;BMP280;11303;50.772;19.670;2023-09-18T09:31:24;98877.88;;;28.22
22269;BMP280;11303;50.772;19.670;2023-09-18T09:33:26;98861.72;;;28.11
22269;BMP280;11303;50.772;19.670;2023-09-18T09:35:30;98866.47;;;28.21
22269;BMP280;11303;50.772;19.670;2023-09-18T09:37:32;98878.75;;;28.48
22269;BMP280;11303;50.772;19.670;2023-09-18T09:39:34;98860.56;;;28.32
22269;BMP280;11303;50.772;19.670;2023-09-18T09:41:36;98856.47;;;28.01
22269;BMP280;11303;50.772;19.670;2023-09-18T09:43:41;98852.31;;;28.00
22269;BMP280;11303;50.772;19.670;2023-09-18T09:45:45;98854.34;;;27.91
22269;BMP280;11303;50.772;19.670;2023-09-18T09:47:47;98856.09;;;27.94
22269;BMP280;11303;50.772;19.670;2023-09-18T09:49:49;98854.06;;;28.03
22269;BMP280;11303;50.772;19.670;2023-09-18T09:51:50;98857.63;;;28.15
22269;BMP280;11303;50.772;19.670;2023-09-18T09:53:52;98847.66;;;28.31
22269;BMP280;11303;50.772;19.670;2023-09-18T09:55:55;98838.31;;;28.41
22269;BMP280;11303;50.772;19.670;2023-09-18T09:58:02;98841.38;;;27.98
22269;BMP280;11303;50.772;19.670;2023-09-18T10:00:04;98839.91;;;27.83
22269;BMP280;11303;50.772;19.670;2023-09-18T10:02:26;98839.22;;;28.17
22269;BMP280;11303;50.772;19.670;2023-09-18T10:04:29;98841.94;;;28.58
22269;BMP280;11303;50.772;19.670;2023-09-18T10:06:34;98843.34;;;28.54
22269;BMP280;11303;50.772;19.670;2023-09-18T10:08:36;98834.00;;;28.28
22269;BMP280;11303;50.772;19.670;2023-09-18T10:10:43;98827.03;;;28.16
22269;BMP280;11303;50.772;19.670;2023-09-18T10:12:48;98827.16;;;28.42
22269;BMP280;11303;50.772;19.670;2023-09-18T10:14:52;98813.13;;;28.47
22269;BMP280;11303;50.772;19.670;2023-09-18T10:17:15;98816.31;;;28.31
22269;BMP280;11303;50.772;19.670;2023-09-18T10:19:27;98801.88;;;28.43
22269;BMP280;11303;50.772;19.670;2023-09-18T10:21:38;98813.41;;;28.70
22269;BMP280;11303;50.772;19.670;2023-09-18T10:26:25;98802.09;;;28.60
22269;BMP280;11303;50.772;19.670;2023-09-18T10:28:31;98785.06;;;28.78
22269;BMP280;11303;50.772;19.670;2023-09-18T10:30:33;98793.88;;;28.64
22269;BMP280;11303;50.772;19.670;2023-09-18T10:32:37;98780.16;;;28.56
22269;BMP280;11303;50.772;19.670;2023-09-18T10:34:40;98794.16;;;28.66
22269;BMP280;11303;50.772;19.670;2023-09-18T10:36:43;98769.75;;;28.17
22269;BMP280;11303;50.772;19.670;2023-09-18T10:38:46;98781.69;;;27.87
22269;BMP280;11303;50.772;19.670;2023-09-18T10:40:52;98778.88;;;28.11
22269;BMP280;11303;50.772;19.670;2023-09-18T10:42:57;98775.09;;;28.58
22269;BMP280;11303;50.772;19.670;2023-09-18T10:44:59;98775.81;;;28.59
22269;BMP280;11303;50.772;19.670;2023-09-18T10:47:04;98775.88;;;28.44
22269;BMP280;11303;50.772;19.670;2023-09-18T10:49:07;98777.16;;;28.08
22269;BMP280;11303;50.772;19.670;2023-09-18T10:51:09;98768.69;;;28.15
22269;BMP280;11303;50.772;19.670;2023-09-18T10:53:12;98761.34;;;28.45
22269;BMP280;11303;50.772;19.670;2023-09-18T10:55:15;98773.84;;;28.54
22269;BMP280;11303;50.772;19.670;2023-09-18T10:57:16;98765.25;;;28.70
22269;BMP280;11303;50.772;19.670;2023-09-18T10:59:18;98759.03;;;28.58
22269;BMP280;11303;50.772;19.670;2023-09-18T11:01:24;98742.66;;;28.10
22269;BMP280;11303;50.772;19.670;2023-09-18T11:03:28;98742.97;;;27.47
22269;BMP280;11303;50.772;19.670;2023-09-18T11:05:32;98757.13;;;27.08
22269;BMP280;11303;50.772;19.670;2023-09-18T11:07:34;98753.75;;;27.38
22269;BMP280;11303;50.772;19.670;2023-09-18T11:09:44;98751.34;;;27.69
22269;BMP280;11303;50.772;19.670;2023-09-18T11:11:46;98750.00;;;27.94
22269;BMP280;11303;50.772;19.670;2023-09-18T11:13:52;98753.91;;;28.14
22269;BMP280;11303;50.772;19.670;2023-09-18T11:16:01;98747.97;;;28.45
22269;BMP280;11303;50.772;19.670;2023-09-18T11:18:03;98750.56;;;28.39
22269;BMP280;11303;50.772;19.670;2023-09-18T11:20:17;98750.09;;;28.20
22269;BMP280;11303;50.772;19.670;2023-09-18T11:22:19;98738.19;;;28.21
22269;BMP280;11303;50.772;19.670;2023-09-18T11:24:21;98738.47;;;28.44
22269;BMP280;11303;50.772;19.670;2023-09-18T11:26:28;98738.75;;;28.46
22269;BMP280;11303;50.772;19.670;2023-09-18T11:28:30;98736.13;;;28.31
22269;BMP280;11303;50.772;19.670;2023-09-18T11:30:36;98735.69;;;28.33
22269;BMP280;11303;50.772;19.670;2023-09-18T11:32:39;98734.97;;;28.79
22269;BMP280;11303;50.772;19.670;2023-09-18T11:34:44;98737.81;;;29.01
22269;BMP280;11303;50.772;19.670;2023-09-18T11:36:45;98732.31;;;29.10
22269;BMP280;11303;50.772;19.670;2023-09-18T11:38:58;98726.06;;;28.87
22269;BMP280;11303;50.772;19.670;2023-09-18T11:41:24;98726.25;;;28.84
22269;BMP280;11303;50.772;19.670;2023-09-18T11:43:29;98731.88;;;28.65
22269;BMP280;11303;50.772;19.670;2023-09-18T11:45:32;98730.28;;;28.73